sensor_id;sensor_type;location;lat;lon;timestamp;P1;durP1;ratioP1;P2;durP2;ratioP2
40022;SDS011;25713;-35.352;149.036;2024-03-07T00:01:03;8.82;;;4.85;;
40022;SDS011;25713;-35.352;149.036;2024-03-07T00:03:32;8.52;;;5.50;;
40022;SDS011;25713;-35.352;149.036;2024-03-07T00:06:02;9.50;;;5.30;;
40022;SDS011;25713;-35.352;149.036;2024-03-07T00:08:31;9.73;;;5.47;;
40022;SDS011;25713;-35.352;149.036;2024-03-07T00:11:01;10.55;;;5.40;;
40022;SDS011;25713;-35.352;149.036;2024-03-07T00:13:30;8.23;;;5.25;;
40022;SDS011;25713;-35.352;149.036;2024-03-07T00:16:02;9.35;;;4.28;;
40022;SDS011;25713;-35.352;149.036;2024-03-07T00:18:32;11.07;;;4.13;;
40022;SDS011;25713;-35.352;149.036;2024-03-07T00:21:01;7.18;;;4.22;;
40022;SDS011;25713;-35.352;149.036;2024-03-07T00:23:31;6.50;;;4.30;;
40022;SDS011;25713;-35.352;149.036;2024-03-07T00:26:00;6.72;;;4.05;;
40022;SDS011;25713;-35.352;149.036;2024-03-07T00:28:30;9.65;;;4.47;;
40022;SDS011;25713;-35.352;149.036;2024-03-07T00:31:02;7.93;;;3.65;;
40022;SDS011;25713;-35.352;149.036;2024-03-07T00:33:31;6.65;;;3.40;;
40022;SDS011;25713;-35.352;149.036;2024-03-07T00:36:01;8.38;;;3.35;;
40022;SDS011;25713;-35.352;149.036;2024-03-07T00:38:30;9.32;;;3.50;;
40022;SDS011;25713;-35.352;149.036;2024-03-07T00:41:00;6.90;;;3.72;;
40022;SDS011;25713;-35.352;149.036;2024-03-07T00:43:29;10.23;;;3.50;;
40022;SDS011;25713;-35.352;149.036;2024-03-07T00:46:00;5.68;;;3.28;;
40022;SDS011;25713;-35.352;149.036;2024-03-07T00:48:30;7.97;;;3.33;;
40022;SDS011;25713;-35.352;149.036;2024-03-07T00:51:00;4.63;;;2.63;;
40022;SDS011;25713;-35.352;149.036;2024-03-07T00:53:29;5.65;;;2.45;;
40022;SDS011;25713;-35.352;149.036;2024-03-07T00:55:58;5.78;;;2.83;;
40022;SDS011;25713;-35.352;149.036;2024-03-07T00:58:28;6.20;;;3.15;;
40022;SDS011;25713;-35.352;149.036;2024-03-07T01:00:57;5.88;;;3.25;;
40022;SDS011;25713;-35.352;149.036;2024-03-07T01:03:29;5.53;;;2.95;;
40022;SDS011;25713;-35.352;149.036;2024-03-07T01:05:59;3.90;;;2.40;;
40022;SDS011;25713;-35.352;149.036;2024-03-07T01:08:28;7.55;;;3.00;;
40022;SDS011;25713;-35.352;149.036;2024-03-07T01:10:58;7.28;;;2.97;;
40022;SDS011;25713;-35.352;149.036;2024-03-07T01:13:27;4.75;;;3.00;;
40022;SDS011;25713;-35.352;149.036;2024-03-07T01:15:57;7.32;;;2.60;;
40022;SDS011;25713;-35.352;149.036;2024-03-07T01:18:28;8.23;;;2.60;;
40022;SDS011;25713;-35.352;149.036;2024-03-07T01:20:57;6.47;;;2.40;;
40022;SDS011;25713;-35.352;149.036;2024-03-07T01:23:27;7.70;;;2.78;;
40022;SDS011;25713;-35.352;149.036;2024-03-07T01:25:56;4.82;;;2.80;;
40022;SDS011;25713;-35.352;149.036;2024-03-07T01:28:26;5.72;;;2.80;;
40022;SDS011;25713;-35.352;149.036;2024-03-07T01:30:56;9.77;;;2.88;;
40022;SDS011;25713;-35.352;149.036;2024-03-07T01:33:27;5.63;;;2.53;;
40022;SDS011;25713;-35.352;149.036;2024-03-07T01:35:57;5.05;;;2.53;;
40022;SDS011;25713;-35.352;149.036;2024-03-07T01:38:28;5.07;;;2.97;;
40022;SDS011;25713;-35.352;149.036;2024-03-07T01:40:58;8.68;;;2.78;;
40022;SDS011;25713;-35.352;149.036;2024-03-07T01:43:28;6.72;;;3.00;;
40022;SDS011;25713;-35.352;149.036;2024-03-07T01:45:58;4.28;;;2.53;;
40022;SDS011;25713;-35.352;149.036;2024-03-07T01:48:30;6.10;;;2.97;;
40022;SDS011;25713;-35.352;149.036;2024-03-07T01:51:01;8.07;;;3.00;;
40022;SDS011;25713;-35.352;149.036;2024-03-07T01:53:31;6.25;;;2.60;;
40022;SDS011;25713;-35.352;149.036;2024-03-07T01:56:02;8.10;;;3.00;;
40022;SDS011;25713;-35.352;149.036;2024-03-07T01:58:33;6.30;;;3.00;;
40022;SDS011;25713;-35.352;149.036;2024-03-07T02:01:05;10.68;;;3.00;;
40022;SDS011;25713;-35.352;149.036;2024-03-07T02:03:38;4.50;;;3.30;;
40022;SDS011;25713;-35.352;149.036;2024-03-07T02:06:08;6.30;;;2.85;;
40022;SDS011;25713;-35.352;149.036;2024-03-07T02:08:39;7.75;;;3.22;;
40022;SDS011;25713;-35.352;149.036;2024-03-07T02:11:09;5.55;;;2.70;;
40022;SDS011;25713;-35.352;149.036;2024-03-07T02:13:39;9.38;;;3.40;;
40022;SDS011;25713;-35.352;149.036;2024-03-07T02:16:09;9.65;;;3.13;;
40022;SDS011;25713;-35.352;149.036;2024-03-07T02:18:41;6.43;;;3.05;;
40022;SDS011;25713;-35.352;149.036;2024-03-07T02:21:14;6.65;;;2.97;;
40022;SDS011;25713;-35.352;149.036;2024-03-07T02:23:45;7.10;;;2.83;;
40022;SDS011;25713;-35.352;149.036;2024-03-07T02:26:16;7.25;;;3.03;;
40022;SDS011;25713;-35.352;149.036;2024-03-07T02:28:46;8.15;;;3.03;;
40022;SDS011;25713;-35.352;149.036;2024-03-07T02:31:16;5.00;;;2.40;;
40022;SDS011;25713;-35.352;149.036;2024-03-07T02:33:46;7.68;;;2.88;;
40022;SDS011;25713;-35.352;149.036;2024-03-07T02:36:18;6.25;;;2.70;;
40022;SDS011;25713;-35.352;149.036;2024-03-07T02:38:49;5.15;;;2.47;;
40022;SDS011;25713;-35.352;149.036;2024-03-07T02:41:19;6.15;;;2.58;;
40022;SDS011;25713;-35.352;149.036;2024-03-07T02:43:49;7.35;;;2.55;;
40022;SDS011;25713;-35.352;149.036;2024-03-07T02:46:20;4.57;;;2.42;;
40022;SDS011;25713;-35.352;149.036;2024-03-07T02:48:50;5.40;;;2.38;;
40022;SDS011;25713;-35.352;149.036;2024-03-07T02:51:23;5.10;;;2.90;;
40022;SDS011;25713;-35.352;149.036;2024-03-07T02:53:53;4.53;;;2.38;;
40022;SDS011;25713;-35.352;149.036;2024-03-07T02:56:22;4.43;;;2.28;;
40022;SDS011;25713;-35.352;149.036;2024-03-07T02:58:52;5.45;;;2.53;;
40022;SDS011;25713;-35.352;149.036;2024-03-07T03:01:21;7.05;;;2.50;;
40022;SDS011;25713;-35.352;149.036;2024-03-07T03:03:51;6.82;;;2.25;;
40022;SDS011;25713;-35.352;149.036;2024-03-07T03:06:24;7.47;;;2.33;;
40022;SDS011;25713;-35.352;149.036;2024-03-07T03:08:54;5.30;;;2.55;;
40022;SDS011;25713;-35.352;149.036;2024-03-07T03:11:23;11.52;;;2.45;;
40022;SDS011;25713;-35.352;149.036;2024-03-07T03:13:53;5.80;;;2.40;;
40022;SDS011;25713;-35.352;149.036;2024-03-07T03:16:23;4.15;;;2.22;;
40022;SDS011;25713;-35.352;149.036;2024-03-07T03:18:53;6.05;;;2.03;;
40022;SDS011;25713;-35.352;149.036;2024-03-07T03:21:25;3.58;;;1.90;;
40022;SDS011;25713;-35.352;149.036;2024-03-07T03:23:55;5.70;;;2.10;;
40022;SDS011;25713;-35.352;149.036;2024-03-07T03:26:25;5.22;;;1.98;;
40022;SDS011;25713;-35.352;149.036;2024-03-07T03:28:55;3.97;;;2.05;;
40022;SDS011;25713;-35.352;149.036;2024-03-07T03:31:25;4.53;;;2.13;;
40022;SDS011;25713;-35.352;149.036;2024-03-07T03:33:55;5.50;;;2.10;;
40022;SDS011;25713;-35.352;149.036;2024-03-07T03:36:26;3.20;;;2.05;;
40022;SDS011;25713;-35.352;149.036;2024-03-07T03:38:56;5.95;;;2.00;;
40022;SDS011;25713;-35.352;149.036;2024-03-07T03:41:25;4.95;;;2.03;;
40022;SDS011;25713;-35.352;149.036;2024-03-07T03:43:55;7.32;;;1.85;;
40022;SDS011;25713;-35.352;149.036;2024-03-07T03:46:25;4.03;;;1.80;;
40022;SDS011;25713;-35.352;149.036;2024-03-07T03:48:55;6.95;;;2.00;;
40022;SDS011;25713;-35.352;149.036;2024-03-07T03:51:27;5.38;;;2.03;;
40022;SDS011;25713;-35.352;149.036;2024-03-07T03:53:56;5.45;;;2.05;;
40022;SDS011;25713;-35.352;149.036;2024-03-07T03:56:25;8.25;;;2.10;;
40022;SDS011;25713;-35.352;149.036;2024-03-07T03:58:55;3.88;;;1.83;;
40022;SDS011;25713;-35.352;149.036;2024-03-07T04:01:25;3.53;;;2.08;;
40022;SDS011;25713;-35.352;149.036;2024-03-07T04:03:54;5.50;;;1.80;;
40022;SDS011;25713;-35.352;149.036;2024-03-07T04:06:23;4.35;;;1.92;;
40022;SDS011;25713;-35.352;149.036;2024-03-07T04:08:55;3.70;;;1.70;;
40022;SDS011;25713;-35.352;149.036;2024-03-07T04:11:24;3.50;;;1.85;;
40022;SDS011;25713;-35.352;149.036;2024-03-07T04:13:54;6.15;;;2.00;;
40022;SDS011;25713;-35.352;149.036;2024-03-07T04:16:23;6.03;;;2.22;;
40022;SDS011;25713;-35.352;149.036;2024-03-07T04:18:53;2.40;;;1.90;;
40022;SDS011;25713;-35.352;149.036;2024-03-07T04:21:22;4.95;;;1.80;;
40022;SDS011;25713;-35.352;149.036;2024-03-07T04:23:53;4.57;;;1.90;;
40022;SDS011;25713;-35.352;149.036;2024-03-07T04:26:23;4.22;;;2.13;;
40022;SDS011;25713;-35.352;149.036;2024-03-07T04:28:52;3.42;;;2.00;;
40022;SDS011;25713;-35.352;149.036;2024-03-07T04:31:22;6.05;;;1.92;;
40022;SDS011;25713;-35.352;149.036;2024-03-07T04:33:51;4.78;;;2.00;;
40022;SDS011;25713;-35.352;149.036;2024-03-07T04:36:20;4.97;;;1.80;;
40022;SDS011;25713;-35.352;149.036;2024-03-07T04:38:50;5.03;;;2.10;;
40022;SDS011;25713;-35.352;149.036;2024-03-07T04:41:21;3.40;;;1.90;;
40022;SDS011;25713;-35.352;149.036;2024-03-07T04:43:51;5.07;;;1.80;;
40022;SDS011;25713;-35.352;149.036;2024-03-07T04:46:20;6.57;;;2.08;;
40022;SDS011;25713;-35.352;149.036;2024-03-07T04:48:50;3.58;;;1.77;;
40022;SDS011;25713;-35.352;149.036;2024-03-07T04:51:19;4.47;;;1.85;;
40022;SDS011;25713;-35.352;149.036;2024-03-07T04:53:48;5.63;;;1.90;;
40022;SDS011;25713;-35.352;149.036;2024-03-07T04:56:20;5.57;;;1.80;;
40022;SDS011;25713;-35.352;149.036;2024-03-07T04:58:49;5.38;;;1.65;;
40022;SDS011;25713;-35.352;149.036;2024-03-07T05:01:19;5.53;;;1.88;;
40022;SDS011;25713;-35.352;149.036;2024-03-07T05:03:50;7.47;;;1.90;;
40022;SDS011;25713;-35.352;149.036;2024-03-07T05:06:19;3.83;;;1.50;;
40022;SDS011;25713;-35.352;149.036;2024-03-07T05:08:49;5.30;;;1.60;;
40022;SDS011;25713;-35.352;149.036;2024-03-07T05:11:20;3.63;;;1.88;;
40022;SDS011;25713;-35.352;149.036;2024-03-07T05:13:50;4.70;;;2.03;;
40022;SDS011;25713;-35.352;149.036;2024-03-07T05:16:20;3.70;;;1.70;;
40022;SDS011;25713;-35.352;149.036;2024-03-07T05:18:50;5.70;;;2.00;;
40022;SDS011;25713;-35.352;149.036;2024-03-07T05:21:20;5.93;;;1.65;;
40022;SDS011;25713;-35.352;149.036;2024-03-07T05:23:50;5.03;;;1.65;;
40022;SDS011;25713;-35.352;149.036;2024-03-07T05:26:21;3.85;;;1.40;;
40022;SDS011;25713;-35.352;149.036;2024-03-07T05:28:51;3.05;;;1.50;;
40022;SDS011;25713;-35.352;149.036;2024-03-07T05:31:20;6.22;;;1.60;;
40022;SDS011;25713;-35.352;149.036;2024-03-07T05:33:50;3.38;;;1.50;;
40022;SDS011;25713;-35.352;149.036;2024-03-07T05:36:19;3.88;;;1.88;;
40022;SDS011;25713;-35.352;149.036;2024-03-07T05:38:49;6.35;;;1.85;;
40022;SDS011;25713;-35.352;149.036;2024-03-07T05:41:18;4.78;;;1.80;;
40022;SDS011;25713;-35.352;149.036;2024-03-07T05:43:49;5.68;;;1.85;;
40022;SDS011;25713;-35.352;149.036;2024-03-07T05:46:19;5.78;;;1.92;;
40022;SDS011;25713;-35.352;149.036;2024-03-07T05:48:48;5.22;;;1.90;;
40022;SDS011;25713;-35.352;149.036;2024-03-07T05:51:18;4.35;;;1.88;;
40022;SDS011;25713;-35.352;149.036;2024-03-07T05:53:47;5.47;;;2.30;;
40022;SDS011;25713;-35.352;149.036;2024-03-07T05:56:17;7.47;;;2.30;;
40022;SDS011;25713;-35.352;149.036;2024-03-07T05:58:48;4.97;;;1.90;;
40022;SDS011;25713;-35.352;149.036;2024-03-07T06:01:17;6.68;;;2.08;;
40022;SDS011;25713;-35.352;149.036;2024-03-07T06:03:47;5.97;;;2.20;;
40022;SDS011;25713;-35.352;149.036;2024-03-07T06:06:16;9.45;;;2.40;;
40022;SDS011;25713;-35.352;149.036;2024-03-07T06:08:45;7.80;;;2.55;;
40022;SDS011;25713;-35.352;149.036;2024-03-07T06:11:15;8.85;;;2.17;;
40022;SDS011;25713;-35.352;149.036;2024-03-07T06:13:44;5.20;;;2.15;;
40022;SDS011;25713;-35.352;149.036;2024-03-07T06:16:16;8.88;;;2.70;;
40022;SDS011;25713;-35.352;149.036;2024-03-07T06:18:45;7.32;;;2.10;;
40022;SDS011;25713;-35.352;149.036;2024-03-07T06:21:15;5.57;;;2.10;;
40022;SDS011;25713;-35.352;149.036;2024-03-07T06:23:44;7.13;;;2.00;;
40022;SDS011;25713;-35.352;149.036;2024-03-07T06:26:14;6.10;;;2.45;;
40022;SDS011;25713;-35.352;149.036;2024-03-07T06:28:43;5.53;;;2.72;;
40022;SDS011;25713;-35.352;149.036;2024-03-07T06:31:15;6.55;;;2.30;;
40022;SDS011;25713;-35.352;149.036;2024-03-07T06:33:44;8.73;;;2.10;;
40022;SDS011;25713;-35.352;149.036;2024-03-07T06:36:13;6.53;;;2.30;;
40022;SDS011;25713;-35.352;149.036;2024-03-07T06:38:43;5.63;;;1.90;;
40022;SDS011;25713;-35.352;149.036;2024-03-07T06:41:12;8.18;;;2.35;;
40022;SDS011;25713;-35.352;149.036;2024-03-07T06:43:42;8.43;;;2.45;;
40022;SDS011;25713;-35.352;149.036;2024-03-07T06:46:12;4.75;;;2.10;;
40022;SDS011;25713;-35.352;149.036;2024-03-07T06:48:43;8.60;;;2.20;;
40022;SDS011;25713;-35.352;149.036;2024-03-07T06:51:13;8.70;;;2.63;;
40022;SDS011;25713;-35.352;149.036;2024-03-07T06:53:42;6.63;;;2.38;;
40022;SDS011;25713;-35.352;149.036;2024-03-07T06:56:15;5.63;;;2.28;;
40022;SDS011;25713;-35.352;149.036;2024-03-07T06:58:44;10.80;;;2.40;;
40022;SDS011;25713;-35.352;149.036;2024-03-07T07:01:16;6.60;;;2.40;;
40022;SDS011;25713;-35.352;149.036;2024-03-07T07:03:45;5.57;;;2.47;;
40022;SDS011;25713;-35.352;149.036;2024-03-07T07:06:14;5.70;;;2.40;;
40022;SDS011;25713;-35.352;149.036;2024-03-07T07:08:44;9.32;;;2.10;;
40022;SDS011;25713;-35.352;149.036;2024-03-07T07:11:13;5.18;;;2.33;;
40022;SDS011;25713;-35.352;149.036;2024-03-07T07:13:43;11.82;;;2.65;;
40022;SDS011;25713;-35.352;149.036;2024-03-07T07:16:12;6.28;;;2.40;;
40022;SDS011;25713;-35.352;149.036;2024-03-07T07:18:43;11.25;;;2.60;;
40022;SDS011;25713;-35.352;149.036;2024-03-07T07:21:13;5.97;;;2.50;;
40022;SDS011;25713;-35.352;149.036;2024-03-07T07:23:42;8.15;;;2.72;;
40022;SDS011;25713;-35.352;149.036;2024-03-07T07:26:11;11.00;;;2.70;;
40022;SDS011;25713;-35.352;149.036;2024-03-07T07:28:41;6.45;;;2.50;;
40022;SDS011;25713;-35.352;149.036;2024-03-07T07:31:10;6.80;;;3.05;;
40022;SDS011;25713;-35.352;149.036;2024-03-07T07:33:41;7.80;;;2.70;;
40022;SDS011;25713;-35.352;149.036;2024-03-07T07:36:11;5.07;;;2.25;;
40022;SDS011;25713;-35.352;149.036;2024-03-07T07:38:40;9.98;;;2.85;;
40022;SDS011;25713;-35.352;149.036;2024-03-07T07:41:10;9.15;;;2.60;;
40022;SDS011;25713;-35.352;149.036;2024-03-07T07:43:39;9.52;;;2.97;;
40022;SDS011;25713;-35.352;149.036;2024-03-07T07:46:09;8.30;;;2.65;;
40022;SDS011;25713;-35.352;149.036;2024-03-07T07:48:38;6.97;;;2.90;;
40022;SDS011;25713;-35.352;149.036;2024-03-07T07:51:10;8.13;;;3.20;;
40022;SDS011;25713;-35.352;149.036;2024-03-07T07:53:39;6.75;;;3.05;;
40022;SDS011;25713;-35.352;149.036;2024-03-07T07:56:09;9.82;;;3.00;;
40022;SDS011;25713;-35.352;149.036;2024-03-07T07:58:38;6.55;;;2.92;;
40022;SDS011;25713;-35.352;149.036;2024-03-07T08:01:07;8.25;;;3.10;;
40022;SDS011;25713;-35.352;149.036;2024-03-07T08:03:37;9.05;;;3.10;;
40022;SDS011;25713;-35.352;149.036;2024-03-07T08:06:08;6.63;;;3.25;;
40022;SDS011;25713;-35.352;149.036;2024-03-07T08:08:38;6.80;;;2.75;;
40022;SDS011;25713;-35.352;149.036;2024-03-07T08:11:07;6.57;;;3.17;;
40022;SDS011;25713;-35.352;149.036;2024-03-07T08:13:36;5.30;;;2.95;;
40022;SDS011;25713;-35.352;149.036;2024-03-07T08:16:07;8.40;;;3.38;;
40022;SDS011;25713;-35.352;149.036;2024-03-07T08:18:37;10.20;;;3.03;;
40022;SDS011;25713;-35.352;149.036;2024-03-07T08:21:08;7.25;;;2.92;;
40022;SDS011;25713;-35.352;149.036;2024-03-07T08:23:38;8.10;;;3.42;;
40022;SDS011;25713;-35.352;149.036;2024-03-07T08:26:07;10.57;;;2.97;;
40022;SDS011;25713;-35.352;149.036;2024-03-07T08:28:37;6.38;;;2.97;;
40022;SDS011;25713;-35.352;149.036;2024-03-07T08:31:06;9.68;;;3.60;;
40022;SDS011;25713;-35.352;149.036;2024-03-07T08:33:36;9.63;;;3.30;;
40022;SDS011;25713;-35.352;149.036;2024-03-07T08:36:05;8.60;;;3.65;;
40022;SDS011;25713;-35.352;149.036;2024-03-07T08:38:37;9.48;;;3.45;;
40022;SDS011;25713;-35.352;149.036;2024-03-07T08:41:06;6.70;;;3.30;;
40022;SDS011;25713;-35.352;149.036;2024-03-07T08:43:35;8.73;;;3.20;;
40022;SDS011;25713;-35.352;149.036;2024-03-07T08:46:05;7.68;;;3.63;;
40022;SDS011;25713;-35.352;149.036;2024-03-07T08:48:34;10.85;;;3.30;;
40022;SDS011;25713;-35.352;149.036;2024-03-07T08:51:04;7.78;;;3.30;;
40022;SDS011;25713;-35.352;149.036;2024-03-07T08:53:36;8.32;;;3.33;;
40022;SDS011;25713;-35.352;149.036;2024-03-07T08:56:05;6.13;;;3.45;;
40022;SDS011;25713;-35.352;149.036;2024-03-07T08:58:35;9.43;;;3.85;;
40022;SDS011;25713;-35.352;149.036;2024-03-07T09:01:04;5.95;;;3.28;;
40022;SDS011;25713;-35.352;149.036;2024-03-07T09:03:33;10.00;;;3.58;;
40022;SDS011;25713;-35.352;149.036;2024-03-07T09:06:03;9.10;;;3.72;;
40022;SDS011;25713;-35.352;149.036;2024-03-07T09:08:33;6.97;;;3.53;;
40022;SDS011;25713;-35.352;149.036;2024-03-07T09:11:04;8.03;;;3.70;;
40022;SDS011;25713;-35.352;149.036;2024-03-07T09:13:33;8.20;;;3.88;;
40022;SDS011;25713;-35.352;149.036;2024-03-07T09:16:03;7.32;;;3.70;;
40022;SDS011;25713;-35.352;149.036;2024-03-07T09:18:33;7.43;;;3.70;;
40022;SDS011;25713;-35.352;149.036;2024-03-07T09:21:03;4.88;;;3.00;;
40022;SDS011;25713;-35.352;149.036;2024-03-07T09:23:32;8.35;;;3.70;;
40022;SDS011;25713;-35.352;149.036;2024-03-07T09:26:04;6.85;;;4.05;;
40022;SDS011;25713;-35.352;149.036;2024-03-07T09:28:34;9.13;;;3.85;;
40022;SDS011;25713;-35.352;149.036;2024-03-07T09:31:04;7.63;;;4.10;;
40022;SDS011;25713;-35.352;149.036;2024-03-07T09:33:34;7.75;;;3.80;;
40022;SDS011;25713;-35.352;149.036;2024-03-07T09:36:04;9.38;;;5.35;;
40022;SDS011;25713;-35.352;149.036;2024-03-07T09:38:33;18.98;;;9.80;;
40022;SDS011;25713;-35.352;149.036;2024-03-07T09:41:07;17.38;;;8.38;;
40022;SDS011;25713;-35.352;149.036;2024-03-07T09:43:37;11.85;;;7.03;;
40022;SDS011;25713;-35.352;149.036;2024-03-07T09:46:08;19.20;;;11.05;;
40022;SDS011;25713;-35.352;149.036;2024-03-07T09:48:39;17.77;;;11.15;;
40022;SDS011;25713;-35.352;149.036;2024-03-07T09:51:09;13.68;;;8.98;;
40022;SDS011;25713;-35.352;149.036;2024-03-07T09:53:40;15.38;;;9.50;;
40022;SDS011;25713;-35.352;149.036;2024-03-07T09:56:15;17.40;;;11.02;;
40022;SDS011;25713;-35.352;149.036;2024-03-07T09:58:48;18.23;;;11.10;;
40022;SDS011;25713;-35.352;149.036;2024-03-07T10:01:19;18.20;;;11.23;;
40022;SDS011;25713;-35.352;149.036;2024-03-07T10:03:55;22.48;;;11.48;;
40022;SDS011;25713;-35.352;149.036;2024-03-07T10:06:27;20.60;;;11.88;;
40022;SDS011;25713;-35.352;149.036;2024-03-07T10:08:58;22.40;;;12.30;;
40022;SDS011;25713;-35.352;149.036;2024-03-07T10:11:31;18.10;;;11.18;;
40022;SDS011;25713;-35.352;149.036;2024-03-07T10:14:01;17.75;;;9.30;;
40022;SDS011;25713;-35.352;149.036;2024-03-07T10:16:31;20.08;;;10.90;;
40022;SDS011;25713;-35.352;149.036;2024-03-07T10:19:04;15.55;;;9.55;;
40022;SDS011;25713;-35.352;149.036;2024-03-07T10:21:34;17.73;;;10.25;;
40022;SDS011;25713;-35.352;149.036;2024-03-07T10:24:04;15.45;;;9.82;;
40022;SDS011;25713;-35.352;149.036;2024-03-07T10:26:38;15.35;;;9.32;;
40022;SDS011;25713;-35.352;149.036;2024-03-07T10:29:08;13.75;;;8.40;;
40022;SDS011;25713;-35.352;149.036;2024-03-07T10:31:38;14.18;;;8.20;;
40022;SDS011;25713;-35.352;149.036;2024-03-07T10:34:08;10.68;;;7.93;;
40022;SDS011;25713;-35.352;149.036;2024-03-07T10:36:38;13.10;;;7.75;;
40022;SDS011;25713;-35.352;149.036;2024-03-07T10:39:08;14.18;;;7.38;;
40022;SDS011;25713;-35.352;149.036;2024-03-07T10:41:44;10.60;;;7.53;;
40022;SDS011;25713;-35.352;149.036;2024-03-07T10:44:20;13.20;;;7.10;;
40022;SDS011;25713;-35.352;149.036;2024-03-07T10:46:52;11.35;;;6.93;;
40022;SDS011;25713;-35.352;149.036;2024-03-07T10:49:25;12.13;;;6.75;;
40022;SDS011;25713;-35.352;149.036;2024-03-07T10:52:02;13.52;;;6.63;;
40022;SDS011;25713;-35.352;149.036;2024-03-07T10:54:36;12.90;;;6.88;;
40022;SDS011;25713;-35.352;149.036;2024-03-07T10:57:20;9.70;;;5.90;;
40022;SDS011;25713;-35.352;149.036;2024-03-07T10:59:56;10.00;;;5.95;;
40022;SDS011;25713;-35.352;149.036;2024-03-07T11:02:33;11.68;;;5.88;;
40022;SDS011;25713;-35.352;149.036;2024-03-07T11:05:11;11.45;;;5.60;;
40022;SDS011;25713;-35.352;149.036;2024-03-07T11:07:42;12.15;;;5.88;;
40022;SDS011;25713;-35.352;149.036;2024-03-07T11:12:59;12.10;;;5.05;;
40022;SDS011;25713;-35.352;149.036;2024-03-07T11:15:30;10.10;;;5.50;;
40022;SDS011;25713;-35.352;149.036;2024-03-07T11:18:01;7.82;;;4.78;;
40022;SDS011;25713;-35.352;149.036;2024-03-07T11:20:34;9.63;;;5.20;;
40022;SDS011;25713;-35.352;149.036;2024-03-07T11:25:55;8.77;;;4.30;;
40022;SDS011;25713;-35.352;149.036;2024-03-07T11:28:33;9.00;;;4.75;;
40022;SDS011;25713;-35.352;149.036;2024-03-07T11:31:07;11.57;;;4.85;;
40022;SDS011;25713;-35.352;149.036;2024-03-07T11:36:44;9.63;;;4.07;;
40022;SDS011;25713;-35.352;149.036;2024-03-07T11:42:19;7.13;;;4.38;;
40022;SDS011;25713;-35.352;149.036;2024-03-07T11:44:54;6.97;;;3.70;;
40022;SDS011;25713;-35.352;149.036;2024-03-07T11:47:25;7.63;;;4.18;;
40022;SDS011;25713;-35.352;149.036;2024-03-07T11:50:02;7.22;;;4.00;;
40022;SDS011;25713;-35.352;149.036;2024-03-07T11:52:33;9.18;;;4.00;;
40022;SDS011;25713;-35.352;149.036;2024-03-07T11:55:03;7.28;;;4.07;;
40022;SDS011;25713;-35.352;149.036;2024-03-07T11:57:33;10.05;;;4.70;;
40022;SDS011;25713;-35.352;149.036;2024-03-07T12:00:09;7.88;;;4.03;;
40022;SDS011;25713;-35.352;149.036;2024-03-07T12:02:40;5.03;;;3.70;;
40022;SDS011;25713;-35.352;149.036;2024-03-07T12:05:11;7.55;;;3.97;;
40022;SDS011;25713;-35.352;149.036;2024-03-07T12:07:41;7.30;;;4.00;;
40022;SDS011;25713;-35.352;149.036;2024-03-07T12:10:11;7.38;;;3.95;;
40022;SDS011;25713;-35.352;149.036;2024-03-07T12:12:42;6.75;;;3.50;;
40022;SDS011;25713;-35.352;149.036;2024-03-07T12:15:16;6.05;;;3.83;;
40022;SDS011;25713;-35.352;149.036;2024-03-07T12:17:46;7.15;;;4.00;;
40022;SDS011;25713;-35.352;149.036;2024-03-07T12:20:18;5.72;;;3.75;;
40022;SDS011;25713;-35.352;149.036;2024-03-07T12:22:48;6.07;;;3.97;;
40022;SDS011;25713;-35.352;149.036;2024-03-07T12:25:18;6.97;;;3.63;;
40022;SDS011;25713;-35.352;149.036;2024-03-07T12:27:48;7.75;;;4.57;;
40022;SDS011;25713;-35.352;149.036;2024-03-07T12:30:31;5.60;;;3.90;;
40022;SDS011;25713;-35.352;149.036;2024-03-07T12:33:03;7.40;;;3.70;;
40022;SDS011;25713;-35.352;149.036;2024-03-07T12:35:33;8.57;;;4.13;;
40022;SDS011;25713;-35.352;149.036;2024-03-07T12:38:03;7.63;;;3.60;;
40022;SDS011;25713;-35.352;149.036;2024-03-07T12:40:32;6.55;;;3.47;;
40022;SDS011;25713;-35.352;149.036;2024-03-07T12:43:02;7.35;;;4.10;;
40022;SDS011;25713;-35.352;149.036;2024-03-07T12:45:44;7.13;;;4.05;;
40022;SDS011;25713;-35.352;149.036;2024-03-07T12:48:16;6.63;;;3.92;;
40022;SDS011;25713;-35.352;149.036;2024-03-07T12:50:46;7.07;;;3.75;;
40022;SDS011;25713;-35.352;149.036;2024-03-07T12:53:16;10.05;;;4.07;;
40022;SDS011;25713;-35.352;149.036;2024-03-07T12:55:45;7.55;;;4.20;;
40022;SDS011;25713;-35.352;149.036;2024-03-07T12:58:15;6.50;;;3.88;;
40022;SDS011;25713;-35.352;149.036;2024-03-07T13:00:46;8.15;;;4.00;;
40022;SDS011;25713;-35.352;149.036;2024-03-07T13:03:16;9.10;;;4.13;;
40022;SDS011;25713;-35.352;149.036;2024-03-07T13:05:46;4.95;;;3.65;;
40022;SDS011;25713;-35.352;149.036;2024-03-07T13:08:16;6.60;;;3.90;;
40022;SDS011;25713;-35.352;149.036;2024-03-07T13:10:45;7.70;;;3.83;;
40022;SDS011;25713;-35.352;149.036;2024-03-07T13:13:14;8.15;;;3.75;;
40022;SDS011;25713;-35.352;149.036;2024-03-07T13:15:44;8.07;;;4.40;;
40022;SDS011;25713;-35.352;149.036;2024-03-07T13:18:15;6.82;;;3.63;;
40022;SDS011;25713;-35.352;149.036;2024-03-07T13:20:45;6.95;;;3.50;;
40022;SDS011;25713;-35.352;149.036;2024-03-07T13:23:14;9.48;;;3.70;;
40022;SDS011;25713;-35.352;149.036;2024-03-07T13:25:44;5.22;;;3.60;;
40022;SDS011;25713;-35.352;149.036;2024-03-07T13:28:13;6.80;;;4.07;;
40022;SDS011;25713;-35.352;149.036;2024-03-07T13:30:44;7.97;;;4.00;;
40022;SDS011;25713;-35.352;149.036;2024-03-07T13:33:15;6.50;;;4.00;;
40022;SDS011;25713;-35.352;149.036;2024-03-07T13:35:45;9.00;;;3.90;;
40022;SDS011;25713;-35.352;149.036;2024-03-07T13:38:14;7.20;;;3.83;;
40022;SDS011;25713;-35.352;149.036;2024-03-07T13:40:43;7.35;;;3.75;;
40022;SDS011;25713;-35.352;149.036;2024-03-07T13:43:13;6.38;;;4.05;;
40022;SDS011;25713;-35.352;149.036;2024-03-07T13:45:43;5.30;;;3.90;;
40022;SDS011;25713;-35.352;149.036;2024-03-07T13:48:14;5.95;;;3.60;;
40022;SDS011;25713;-35.352;149.036;2024-03-07T13:50:44;7.03;;;3.88;;
40022;SDS011;25713;-35.352;149.036;2024-03-07T13:53:13;8.80;;;3.80;;
40022;SDS011;25713;-35.352;149.036;2024-03-07T13:55:48;4.93;;;3.50;;
40022;SDS011;25713;-35.352;149.036;2024-03-07T13:58:41;7.45;;;3.75;;
40022;SDS011;25713;-35.352;149.036;2024-03-07T14:01:28;8.02;;;3.65;;
40022;SDS011;25713;-35.352;149.036;2024-03-07T14:07:41;9.48;;;3.65;;
40022;SDS011;25713;-35.352;149.036;2024-03-07T14:10:29;7.95;;;3.60;;
40022;SDS011;25713;-35.352;149.036;2024-03-07T14:13:24;7.72;;;3.85;;
40022;SDS011;25713;-35.352;149.036;2024-03-07T14:16:20;7.63;;;3.78;;
40022;SDS011;25713;-35.352;149.036;2024-03-07T14:19:16;9.90;;;3.60;;
40022;SDS011;25713;-35.352;149.036;2024-03-07T14:25:17;6.47;;;3.58;;
40022;SDS011;25713;-35.352;149.036;2024-03-07T14:28:32;8.70;;;3.80;;
40022;SDS011;25713;-35.352;149.036;2024-03-07T14:31:16;5.93;;;3.95;;
40022;SDS011;25713;-35.352;149.036;2024-03-07T14:33:50;5.43;;;3.55;;
40022;SDS011;25713;-35.352;149.036;2024-03-07T14:36:35;8.10;;;3.70;;
40022;SDS011;25713;-35.352;149.036;2024-03-07T14:39:08;6.28;;;3.60;;
40022;SDS011;25713;-35.352;149.036;2024-03-07T14:41:47;5.75;;;3.30;;
40022;SDS011;25713;-35.352;149.036;2024-03-07T15:46:28;7.22;;;2.55;;
40022;SDS011;25713;-35.352;149.036;2024-03-07T15:48:58;7.38;;;2.88;;